sensor_id;sensor_type;location;lat;lon;timestamp;temperature;humidity
11474;DHT22;5793;52.238;13.438;2023-11-18T00:00:10;4.00;99.90
11474;DHT22;5793;52.238;13.438;2023-11-18T00:02:40;4.10;99.90
11474;DHT22;5793;52.238;13.438;2023-11-18T00:05:10;4.10;99.90
11474;DHT22;5793;52.238;13.438;2023-11-18T00:07:38;4.10;99.90
11474;DHT22;5793;52.238;13.438;2023-11-18T00:10:06;4.10;99.90
11474;DHT22;5793;52.238;13.438;2023-11-18T00:12:35;4.20;99.90
11474;DHT22;5793;52.238;13.438;2023-11-18T00:15:04;4.30;99.90
11474;DHT22;5793;52.238;13.438;2023-11-18T00:17:36;4.40;99.90
11474;DHT22;5793;52.238;13.438;2023-11-18T00:20:05;4.40;99.90
11474;DHT22;5793;52.238;13.438;2023-11-18T00:22:36;4.40;99.90
11474;DHT22;5793;52.238;13.438;2023-11-18T00:25:05;4.50;99.90
11474;DHT22;5793;52.238;13.438;2023-11-18T00:27:34;4.50;99.90
11474;DHT22;5793;52.238;13.438;2023-11-18T00:30:04;4.60;99.90
11474;DHT22;5793;52.238;13.438;2023-11-18T00:32:36;4.60;99.90
11474;DHT22;5793;52.238;13.438;2023-11-18T00:35:05;4.60;99.90
11474;DHT22;5793;52.238;13.438;2023-11-18T00:37:33;4.80;99.90
11474;DHT22;5793;52.238;13.438;2023-11-18T00:40:01;4.80;99.90
11474;DHT22;5793;52.238;13.438;2023-11-18T00:42:29;4.80;99.90
11474;DHT22;5793;52.238;13.438;2023-11-18T00:44:57;4.70;99.90
11474;DHT22;5793;52.238;13.438;2023-11-18T00:47:25;4.80;99.90
11474;DHT22;5793;52.238;13.438;2023-11-18T00:49:54;5.00;99.90
11474;DHT22;5793;52.238;13.438;2023-11-18T00:52:22;4.90;99.90
11474;DHT22;5793;52.238;13.438;2023-11-18T00:54:50;4.90;99.90
11474;DHT22;5793;52.238;13.438;2023-11-18T00:57:18;4.90;99.90
11474;DHT22;5793;52.238;13.438;2023-11-18T00:59:46;4.90;99.90
11474;DHT22;5793;52.238;13.438;2023-11-18T01:02:14;4.90;99.90
11474;DHT22;5793;52.238;13.438;2023-11-18T01:04:41;5.00;99.90
11474;DHT22;5793;52.238;13.438;2023-11-18T01:07:11;4.90;99.90
11474;DHT22;5793;52.238;13.438;2023-11-18T01:09:38;4.90;99.90
11474;DHT22;5793;52.238;13.438;2023-11-18T01:12:07;4.90;99.90
11474;DHT22;5793;52.238;13.438;2023-11-18T01:14:36;5.00;99.90
11474;DHT22;5793;52.238;13.438;2023-11-18T01:17:06;5.00;99.90
11474;DHT22;5793;52.238;13.438;2023-11-18T01:19:34;4.90;99.90
11474;DHT22;5793;52.238;13.438;2023-11-18T01:22:01;4.90;99.90
11474;DHT22;5793;52.238;13.438;2023-11-18T01:24:33;5.00;99.90
11474;DHT22;5793;52.238;13.438;2023-11-18T01:27:01;4.90;99.90
11474;DHT22;5793;52.238;13.438;2023-11-18T01:29:29;5.00;99.90
11474;DHT22;5793;52.238;13.438;2023-11-18T01:31:57;4.90;99.90
11474;DHT22;5793;52.238;13.438;2023-11-18T01:34:25;4.90;99.90
11474;DHT22;5793;52.238;13.438;2023-11-18T01:36:54;4.80;99.90
11474;DHT22;5793;52.238;13.438;2023-11-18T01:39:23;4.90;99.90
11474;DHT22;5793;52.238;13.438;2023-11-18T01:41:53;4.80;99.90
11474;DHT22;5793;52.238;13.438;2023-11-18T01:44:21;4.80;99.90
11474;DHT22;5793;52.238;13.438;2023-11-18T01:46:50;4.80;99.90
11474;DHT22;5793;52.238;13.438;2023-11-18T01:49:20;4.70;99.90
11474;DHT22;5793;52.238;13.438;2023-11-18T01:51:50;4.80;99.90
11474;DHT22;5793;52.238;13.438;2023-11-18T01:54:19;4.70;99.90
11474;DHT22;5793;52.238;13.438;2023-11-18T01:56:48;4.80;99.90
11474;DHT22;5793;52.238;13.438;2023-11-18T01:59:17;4.90;99.90
11474;DHT22;5793;52.238;13.438;2023-11-18T02:01:52;4.90;99.90
11474;DHT22;5793;52.238;13.438;2023-11-18T02:04:26;4.80;99.90
11474;DHT22;5793;52.238;13.438;2023-11-18T02:06:55;4.80;99.90
11474;DHT22;5793;52.238;13.438;2023-11-18T02:09:23;4.80;99.90
11474;DHT22;5793;52.238;13.438;2023-11-18T02:11:59;4.90;99.90
11474;DHT22;5793;52.238;13.438;2023-11-18T02:14:32;4.90;99.90
11474;DHT22;5793;52.238;13.438;2023-11-18T02:17:04;4.90;99.90
11474;DHT22;5793;52.238;13.438;2023-11-18T02:19:34;4.90;99.90
11474;DHT22;5793;52.238;13.438;2023-11-18T02:22:03;4.80;99.90
11474;DHT22;5793;52.238;13.438;2023-11-18T02:24:33;4.80;99.90
11474;DHT22;5793;52.238;13.438;2023-11-18T02:27:05;4.80;99.90
11474;DHT22;5793;52.238;13.438;2023-11-18T02:29:36;4.80;99.90
11474;DHT22;5793;52.238;13.438;2023-11-18T02:32:11;4.80;99.90
11474;DHT22;5793;52.238;13.438;2023-11-18T02:34:48;4.90;99.90
11474;DHT22;5793;52.238;13.438;2023-11-18T02:37:18;4.80;99.90
11474;DHT22;5793;52.238;13.438;2023-11-18T02:39:50;4.80;99.90
11474;DHT22;5793;52.238;13.438;2023-11-18T02:42:21;4.80;99.90
11474;DHT22;5793;52.238;13.438;2023-11-18T02:44:51;4.80;99.90
11474;DHT22;5793;52.238;13.438;2023-11-18T02:47:26;4.80;99.90
11474;DHT22;5793;52.238;13.438;2023-11-18T02:49:55;4.80;99.90
11474;DHT22;5793;52.238;13.438;2023-11-18T02:52:29;4.90;99.90
11474;DHT22;5793;52.238;13.438;2023-11-18T02:54:57;4.90;99.90
11474;DHT22;5793;52.238;13.438;2023-11-18T02:57:26;4.90;99.90
11474;DHT22;5793;52.238;13.438;2023-11-18T02:59:54;4.80;99.90
11474;DHT22;5793;52.238;13.438;2023-11-18T03:02:22;4.80;99.90
11474;DHT22;5793;52.238;13.438;2023-11-18T03:04:49;4.80;99.90
11474;DHT22;5793;52.238;13.438;2023-11-18T03:07:17;4.90;99.90
11474;DHT22;5793;52.238;13.438;2023-11-18T03:09:45;4.80;99.90
11474;DHT22;5793;52.238;13.438;2023-11-18T03:12:13;4.80;99.90
11474;DHT22;5793;52.238;13.438;2023-11-18T03:14:42;4.80;99.90
11474;DHT22;5793;52.238;13.438;2023-11-18T03:17:11;4.70;99.90
11474;DHT22;5793;52.238;13.438;2023-11-18T03:19:39;4.80;99.90
11474;DHT22;5793;52.238;13.438;2023-11-18T03:22:08;4.80;99.90
11474;DHT22;5793;52.238;13.438;2023-11-18T03:24:36;4.90;99.90
11474;DHT22;5793;52.238;13.438;2023-11-18T03:27:04;4.90;99.90
11474;DHT22;5793;52.238;13.438;2023-11-18T03:29:31;4.90;99.90
11474;DHT22;5793;52.238;13.438;2023-11-18T03:32:00;4.90;99.90
11474;DHT22;5793;52.238;13.438;2023-11-18T03:34:28;4.90;99.90
11474;DHT22;5793;52.238;13.438;2023-11-18T03:36:56;4.80;99.90
11474;DHT22;5793;52.238;13.438;2023-11-18T03:39:24;4.80;99.90
11474;DHT22;5793;52.238;13.438;2023-11-18T03:41:54;4.90;99.90
11474;DHT22;5793;52.238;13.438;2023-11-18T03:44:23;4.90;99.90
11474;DHT22;5793;52.238;13.438;2023-11-18T03:46:51;4.80;99.90
11474;DHT22;5793;52.238;13.438;2023-11-18T03:49:20;4.70;99.90
11474;DHT22;5793;52.238;13.438;2023-11-18T03:51:48;4.80;99.90
11474;DHT22;5793;52.238;13.438;2023-11-18T03:54:16;4.80;99.90
11474;DHT22;5793;52.238;13.438;2023-11-18T03:56:43;4.90;99.90
11474;DHT22;5793;52.238;13.438;2023-11-18T03:59:11;4.80;99.90
11474;DHT22;5793;52.238;13.438;2023-11-18T04:01:39;4.70;99.90
11474;DHT22;5793;52.238;13.438;2023-11-18T04:04:07;4.70;99.90
11474;DHT22;5793;52.238;13.438;2023-11-18T04:06:36;4.70;99.90
11474;DHT22;5793;52.238;13.438;2023-11-18T04:09:04;4.70;99.90
11474;DHT22;5793;52.238;13.438;2023-11-18T04:11:33;4.80;99.90
11474;DHT22;5793;52.238;13.438;2023-11-18T04:14:02;4.80;99.90
11474;DHT22;5793;52.238;13.438;2023-11-18T04:16:30;4.80;99.90
11474;DHT22;5793;52.238;13.438;2023-11-18T04:18:58;4.80;99.90
11474;DHT22;5793;52.238;13.438;2023-11-18T04:21:26;4.70;99.90
11474;DHT22;5793;52.238;13.438;2023-11-18T04:23:55;4.60;99.90
11474;DHT22;5793;52.238;13.438;2023-11-18T04:26:23;4.50;99.90
11474;DHT22;5793;52.238;13.438;2023-11-18T04:28:51;4.50;99.90
11474;DHT22;5793;52.238;13.438;2023-11-18T04:31:19;4.50;99.90
11474;DHT22;5793;52.238;13.438;2023-11-18T04:33:48;4.50;99.90
11474;DHT22;5793;52.238;13.438;2023-11-18T04:36:16;4.40;99.90
11474;DHT22;5793;52.238;13.438;2023-11-18T04:38:45;4.40;99.90
11474;DHT22;5793;52.238;13.438;2023-11-18T04:41:15;4.40;99.90
11474;DHT22;5793;52.238;13.438;2023-11-18T04:43:43;4.40;99.90
11474;DHT22;5793;52.238;13.438;2023-11-18T04:46:11;4.40;99.90
11474;DHT22;5793;52.238;13.438;2023-11-18T04:48:39;4.40;99.90
11474;DHT22;5793;52.238;13.438;2023-11-18T04:51:08;4.30;99.90
11474;DHT22;5793;52.238;13.438;2023-11-18T04:53:36;4.40;99.90
11474;DHT22;5793;52.238;13.438;2023-11-18T04:56:06;4.30;99.90
11474;DHT22;5793;52.238;13.438;2023-11-18T04:58:38;4.40;99.90
11474;DHT22;5793;52.238;13.438;2023-11-18T05:01:06;4.30;99.90
11474;DHT22;5793;52.238;13.438;2023-11-18T05:03:35;4.30;99.90
11474;DHT22;5793;52.238;13.438;2023-11-18T05:06:04;4.20;99.90
11474;DHT22;5793;52.238;13.438;2023-11-18T05:08:32;4.20;99.90
11474;DHT22;5793;52.238;13.438;2023-11-18T05:11:01;4.30;99.90
11474;DHT22;5793;52.238;13.438;2023-11-18T05:13:31;4.30;99.90
11474;DHT22;5793;52.238;13.438;2023-11-18T05:16:02;4.30;99.90
11474;DHT22;5793;52.238;13.438;2023-11-18T05:18:30;4.30;99.90
11474;DHT22;5793;52.238;13.438;2023-11-18T05:21:03;4.30;99.90
11474;DHT22;5793;52.238;13.438;2023-11-18T05:23:34;4.30;99.90
11474;DHT22;5793;52.238;13.438;2023-11-18T05:26:01;4.30;99.90
11474;DHT22;5793;52.238;13.438;2023-11-18T05:28:31;4.30;99.90
11474;DHT22;5793;52.238;13.438;2023-11-18T05:30:59;4.30;99.90
11474;DHT22;5793;52.238;13.438;2023-11-18T05:33:30;4.30;99.90
11474;DHT22;5793;52.238;13.438;2023-11-18T05:35:58;4.20;99.90
11474;DHT22;5793;52.238;13.438;2023-11-18T05:38:26;4.20;99.90
11474;DHT22;5793;52.238;13.438;2023-11-18T05:40:58;4.30;99.90
11474;DHT22;5793;52.238;13.438;2023-11-18T05:43:30;4.40;99.90
11474;DHT22;5793;52.238;13.438;2023-11-18T05:46:04;4.50;99.90
11474;DHT22;5793;52.238;13.438;2023-11-18T05:48:48;4.40;99.90
11474;DHT22;5793;52.238;13.438;2023-11-18T05:51:19;4.40;99.90
11474;DHT22;5793;52.238;13.438;2023-11-18T05:53:48;4.50;99.90
11474;DHT22;5793;52.238;13.438;2023-11-18T05:56:18;4.40;99.90
11474;DHT22;5793;52.238;13.438;2023-11-18T05:58:49;4.40;99.90
11474;DHT22;5793;52.238;13.438;2023-11-18T06:01:17;4.50;99.90
11474;DHT22;5793;52.238;13.438;2023-11-18T06:03:48;4.50;99.90
11474;DHT22;5793;52.238;13.438;2023-11-18T06:06:17;4.40;99.90
11474;DHT22;5793;52.238;13.438;2023-11-18T06:08:49;4.50;99.90
11474;DHT22;5793;52.238;13.438;2023-11-18T06:11:18;4.60;99.90
11474;DHT22;5793;52.238;13.438;2023-11-18T06:13:47;4.70;99.90
11474;DHT22;5793;52.238;13.438;2023-11-18T06:16:17;4.70;99.90
11474;DHT22;5793;52.238;13.438;2023-11-18T06:18:50;4.60;99.90
11474;DHT22;5793;52.238;13.438;2023-11-18T06:21:19;4.70;99.90
11474;DHT22;5793;52.238;13.438;2023-11-18T06:23:51;4.60;99.90
11474;DHT22;5793;52.238;13.438;2023-11-18T06:26:19;4.50;99.90
11474;DHT22;5793;52.238;13.438;2023-11-18T06:28:48;4.40;99.90
11474;DHT22;5793;52.238;13.438;2023-11-18T06:31:16;4.40;99.90
11474;DHT22;5793;52.238;13.438;2023-11-18T06:33:45;4.30;99.90
11474;DHT22;5793;52.238;13.438;2023-11-18T06:36:18;4.30;99.90
11474;DHT22;5793;52.238;13.438;2023-11-18T06:38:47;4.20;99.90
11474;DHT22;5793;52.238;13.438;2023-11-18T06:41:17;4.10;99.90
11474;DHT22;5793;52.238;13.438;2023-11-18T06:43:46;4.10;99.90
11474;DHT22;5793;52.238;13.438;2023-11-18T06:46:25;4.10;99.90
11474;DHT22;5793;52.238;13.438;2023-11-18T06:48:56;4.20;99.90
11474;DHT22;5793;52.238;13.438;2023-11-18T06:51:26;4.40;99.90
11474;DHT22;5793;52.238;13.438;2023-11-18T06:53:55;4.50;99.90
11474;DHT22;5793;52.238;13.438;2023-11-18T06:56:23;4.60;99.90
11474;DHT22;5793;52.238;13.438;2023-11-18T06:58:52;4.70;99.90
11474;DHT22;5793;52.238;13.438;2023-11-18T07:01:20;4.80;99.90
11474;DHT22;5793;52.238;13.438;2023-11-18T07:03:48;4.80;99.90
11474;DHT22;5793;52.238;13.438;2023-11-18T07:06:20;4.70;99.90
11474;DHT22;5793;52.238;13.438;2023-11-18T07:08:52;4.60;99.90
11474;DHT22;5793;52.238;13.438;2023-11-18T07:11:20;4.70;99.90
11474;DHT22;5793;52.238;13.438;2023-11-18T07:13:48;4.80;99.90
11474;DHT22;5793;52.238;13.438;2023-11-18T07:16:23;4.90;99.90
11474;DHT22;5793;52.238;13.438;2023-11-18T07:18:52;4.90;99.90
11474;DHT22;5793;52.238;13.438;2023-11-18T07:21:19;4.80;99.90
11474;DHT22;5793;52.238;13.438;2023-11-18T07:23:47;4.70;99.90
11474;DHT22;5793;52.238;13.438;2023-11-18T07:26:16;4.80;99.90
11474;DHT22;5793;52.238;13.438;2023-11-18T07:28:43;4.90;99.90
11474;DHT22;5793;52.238;13.438;2023-11-18T07:31:11;4.90;99.90
11474;DHT22;5793;52.238;13.438;2023-11-18T07:33:39;4.90;99.90
11474;DHT22;5793;52.238;13.438;2023-11-18T07:36:11;4.90;99.90
11474;DHT22;5793;52.238;13.438;2023-11-18T07:38:39;4.80;99.90
11474;DHT22;5793;52.238;13.438;2023-11-18T07:41:07;4.90;99.90
11474;DHT22;5793;52.238;13.438;2023-11-18T07:43:37;5.00;99.90
11474;DHT22;5793;52.238;13.438;2023-11-18T07:46:07;5.00;99.90
11474;DHT22;5793;52.238;13.438;2023-11-18T07:48:35;5.00;99.90
11474;DHT22;5793;52.238;13.438;2023-11-18T07:51:03;5.10;99.90
11474;DHT22;5793;52.238;13.438;2023-11-18T07:53:31;5.30;99.90
11474;DHT22;5793;52.238;13.438;2023-11-18T07:55:59;5.30;99.90
11474;DHT22;5793;52.238;13.438;2023-11-18T07:58:28;5.40;99.90
11474;DHT22;5793;52.238;13.438;2023-11-18T08:00:58;5.50;99.90
11474;DHT22;5793;52.238;13.438;2023-11-18T08:03:26;5.60;99.90
11474;DHT22;5793;52.238;13.438;2023-11-18T08:05:54;5.70;99.90
11474;DHT22;5793;52.238;13.438;2023-11-18T08:08:22;5.70;99.90
11474;DHT22;5793;52.238;13.438;2023-11-18T08:10:50;5.70;99.90
11474;DHT22;5793;52.238;13.438;2023-11-18T08:13:18;5.70;99.90
11474;DHT22;5793;52.238;13.438;2023-11-18T08:15:45;5.80;99.90
11474;DHT22;5793;52.238;13.438;2023-11-18T08:18:15;6.00;99.90
11474;DHT22;5793;52.238;13.438;2023-11-18T08:20:43;6.00;99.90
11474;DHT22;5793;52.238;13.438;2023-11-18T08:23:11;6.00;99.90
11474;DHT22;5793;52.238;13.438;2023-11-18T08:25:39;6.00;99.90
11474;DHT22;5793;52.238;13.438;2023-11-18T08:28:08;5.80;99.90
11474;DHT22;5793;52.238;13.438;2023-11-18T08:30:37;5.80;99.90
11474;DHT22;5793;52.238;13.438;2023-11-18T08:33:06;5.70;99.90
11474;DHT22;5793;52.238;13.438;2023-11-18T08:35:37;5.60;99.90
11474;DHT22;5793;52.238;13.438;2023-11-18T08:38:07;5.60;99.90
11474;DHT22;5793;52.238;13.438;2023-11-18T08:40:35;5.70;99.90
11474;DHT22;5793;52.238;13.438;2023-11-18T08:43:02;5.70;99.90
11474;DHT22;5793;52.238;13.438;2023-11-18T08:45:34;5.60;99.90
11474;DHT22;5793;52.238;13.438;2023-11-18T08:48:04;5.50;99.90
11474;DHT22;5793;52.238;13.438;2023-11-18T08:50:35;5.40;99.90
11474;DHT22;5793;52.238;13.438;2023-11-18T08:53:04;5.50;99.90
11474;DHT22;5793;52.238;13.438;2023-11-18T08:55:37;5.50;99.90
11474;DHT22;5793;52.238;13.438;2023-11-18T08:58:10;5.50;99.90
11474;DHT22;5793;52.238;13.438;2023-11-18T09:00:48;5.40;99.90
11474;DHT22;5793;52.238;13.438;2023-11-18T09:03:21;5.40;99.90
11474;DHT22;5793;52.238;13.438;2023-11-18T09:06:04;5.30;99.90
11474;DHT22;5793;52.238;13.438;2023-11-18T09:08:36;5.40;99.90
11474;DHT22;5793;52.238;13.438;2023-11-18T09:11:07;5.50;99.90
11474;DHT22;5793;52.238;13.438;2023-11-18T09:13:35;5.50;99.90
11474;DHT22;5793;52.238;13.438;2023-11-18T09:16:04;5.50;99.90
11474;DHT22;5793;52.238;13.438;2023-11-18T09:18:36;5.70;99.90
11474;DHT22;5793;52.238;13.438;2023-11-18T09:21:09;5.90;99.90
11474;DHT22;5793;52.238;13.438;2023-11-18T09:23:43;5.90;99.90
11474;DHT22;5793;52.238;13.438;2023-11-18T09:26:14;5.80;99.90
11474;DHT22;5793;52.238;13.438;2023-11-18T09:28:43;5.60;99.90
11474;DHT22;5793;52.238;13.438;2023-11-18T09:31:12;5.50;99.90
11474;DHT22;5793;52.238;13.438;2023-11-18T09:33:41;5.50;99.90
11474;DHT22;5793;52.238;13.438;2023-11-18T09:36:16;5.50;99.90
11474;DHT22;5793;52.238;13.438;2023-11-18T09:38:46;5.40;99.90
11474;DHT22;5793;52.238;13.438;2023-11-18T09:41:15;5.30;99.90
11474;DHT22;5793;52.238;13.438;2023-11-18T09:43:44;5.20;99.90
11474;DHT22;5793;52.238;13.438;2023-11-18T09:46:14;5.20;99.90
11474;DHT22;5793;52.238;13.438;2023-11-18T09:48:44;5.30;99.90
11474;DHT22;5793;52.238;13.438;2023-11-18T09:51:16;5.30;99.90
11474;DHT22;5793;52.238;13.438;2023-11-18T09:53:51;5.40;99.90
11474;DHT22;5793;52.238;13.438;2023-11-18T09:56:34;5.30;99.90
11474;DHT22;5793;52.238;13.438;2023-11-18T09:59:10;5.40;99.90
11474;DHT22;5793;52.238;13.438;2023-11-18T10:01:43;5.50;99.90
11474;DHT22;5793;52.238;13.438;2023-11-18T10:04:13;5.60;99.90
11474;DHT22;5793;52.238;13.438;2023-11-18T10:06:46;5.50;99.90
11474;DHT22;5793;52.238;13.438;2023-11-18T10:09:16;5.50;99.90
11474;DHT22;5793;52.238;13.438;2023-11-18T10:11:47;5.50;99.90
11474;DHT22;5793;52.238;13.438;2023-11-18T10:14:15;5.50;99.90
11474;DHT22;5793;52.238;13.438;2023-11-18T10:16:44;5.50;99.90
11474;DHT22;5793;52.238;13.438;2023-11-18T10:19:14;5.50;99.90
11474;DHT22;5793;52.238;13.438;2023-11-18T10:21:45;5.50;99.90
11474;DHT22;5793;52.238;13.438;2023-11-18T10:24:17;5.60;99.90
11474;DHT22;5793;52.238;13.438;2023-11-18T10:26:54;5.60;99.90
11474;DHT22;5793;52.238;13.438;2023-11-18T10:29:24;5.60;99.90
11474;DHT22;5793;52.238;13.438;2023-11-18T10:32:04;5.60;99.90
11474;DHT22;5793;52.238;13.438;2023-11-18T10:34:35;5.60;99.90
11474;DHT22;5793;52.238;13.438;2023-11-18T10:37:03;5.60;99.90
11474;DHT22;5793;52.238;13.438;2023-11-18T10:39:34;5.60;99.90
11474;DHT22;5793;52.238;13.438;2023-11-18T10:42:03;5.50;99.90
11474;DHT22;5793;52.238;13.438;2023-11-18T10:44:31;5.60;99.90
11474;DHT22;5793;52.238;13.438;2023-11-18T10:46:59;5.60;99.90
11474;DHT22;5793;52.238;13.438;2023-11-18T10:49:28;5.80;99.90
11474;DHT22;5793;52.238;13.438;2023-11-18T10:52:05;5.90;99.90
11474;DHT22;5793;52.238;13.438;2023-11-18T10:54:37;5.80;99.90
11474;DHT22;5793;52.238;13.438;2023-11-18T10:57:05;5.60;99.90
11474;DHT22;5793;52.238;13.438;2023-11-18T10:59:35;5.50;99.90
11474;DHT22;5793;52.238;13.438;2023-11-18T11:02:18;5.50;99.90
11474;DHT22;5793;52.238;13.438;2023-11-18T11:04:48;5.70;99.90
11474;DHT22;5793;52.238;13.438;2023-11-18T11:07:17;5.70;99.90
11474;DHT22;5793;52.238;13.438;2023-11-18T11:09:48;5.70;99.90
11474;DHT22;5793;52.238;13.438;2023-11-18T11:12:23;5.70;99.90
11474;DHT22;5793;52.238;13.438;2023-11-18T11:14:57;5.70;99.90
11474;DHT22;5793;52.238;13.438;2023-11-18T11:17:28;5.80;99.90
11474;DHT22;5793;52.238;13.438;2023-11-18T11:20:02;6.00;99.90
11474;DHT22;5793;52.238;13.438;2023-11-18T11:22:46;6.20;99.90
11474;DHT22;5793;52.238;13.438;2023-11-18T11:25:27;6.20;99.90
11474;DHT22;5793;52.238;13.438;2023-11-18T11:28:09;6.20;99.90
11474;DHT22;5793;52.238;13.438;2023-11-18T11:30:44;6.00;99.90
11474;DHT22;5793;52.238;13.438;2023-11-18T11:33:17;5.90;99.90
11474;DHT22;5793;52.238;13.438;2023-11-18T11:35:53;5.70;99.90
11474;DHT22;5793;52.238;13.438;2023-11-18T11:38:24;5.80;99.90
11474;DHT22;5793;52.238;13.438;2023-11-18T11:40:55;5.90;99.90
11474;DHT22;5793;52.238;13.438;2023-11-18T11:43:27;6.10;99.90
11474;DHT22;5793;52.238;13.438;2023-11-18T11:45:56;6.20;99.90
11474;DHT22;5793;52.238;13.438;2023-11-18T11:48:26;6.30;99.90
11474;DHT22;5793;52.238;13.438;2023-11-18T11:51:00;6.30;99.90
11474;DHT22;5793;52.238;13.438;2023-11-18T11:53:34;6.30;99.90
11474;DHT22;5793;52.238;13.438;2023-11-18T11:56:07;6.30;99.90
11474;DHT22;5793;52.238;13.438;2023-11-18T11:58:41;6.30;99.90
11474;DHT22;5793;52.238;13.438;2023-11-18T12:01:18;6.60;99.90
11474;DHT22;5793;52.238;13.438;2023-11-18T12:03:52;6.70;99.90
11474;DHT22;5793;52.238;13.438;2023-11-18T12:06:26;6.90;99.90
11474;DHT22;5793;52.238;13.438;2023-11-18T12:08:56;6.80;99.90
11474;DHT22;5793;52.238;13.438;2023-11-18T12:11:26;6.70;99.90
11474;DHT22;5793;52.238;13.438;2023-11-18T12:14:04;6.70;99.90
11474;DHT22;5793;52.238;13.438;2023-11-18T12:16:59;6.60;99.90
11474;DHT22;5793;52.238;13.438;2023-11-18T12:19:41;6.50;99.90
11474;DHT22;5793;52.238;13.438;2023-11-18T12:22:16;6.40;99.90
11474;DHT22;5793;52.238;13.438;2023-11-18T12:28:08;6.60;99.90
11474;DHT22;5793;52.238;13.438;2023-11-18T12:30:41;6.70;99.90
11474;DHT22;5793;52.238;13.438;2023-11-18T12:33:19;6.70;99.90
11474;DHT22;5793;52.238;13.438;2023-11-18T12:42:57;6.70;99.90
11474;DHT22;5793;52.238;13.438;2023-11-18T12:45:42;6.60;99.90
11474;DHT22;5793;52.238;13.438;2023-11-18T12:48:14;6.70;99.90
11474;DHT22;5793;52.238;13.438;2023-11-18T12:50:42;6.70;99.90
11474;DHT22;5793;52.238;13.438;2023-11-18T12:53:12;6.70;99.90
11474;DHT22;5793;52.238;13.438;2023-11-18T12:55:42;6.70;99.90
11474;DHT22;5793;52.238;13.438;2023-11-18T12:58:10;6.60;99.90
11474;DHT22;5793;52.238;13.438;2023-11-18T13:00:41;6.40;99.90
11474;DHT22;5793;52.238;13.438;2023-11-18T13:03:11;6.40;99.90
11474;DHT22;5793;52.238;13.438;2023-11-18T13:05:42;6.40;99.90
11474;DHT22;5793;52.238;13.438;2023-11-18T13:08:12;6.50;99.90
11474;DHT22;5793;52.238;13.438;2023-11-18T13:10:42;6.50;99.90
11474;DHT22;5793;52.238;13.438;2023-11-18T13:13:11;6.40;99.90
11474;DHT22;5793;52.238;13.438;2023-11-18T13:15:42;6.40;99.90
11474;DHT22;5793;52.238;13.438;2023-11-18T13:18:10;6.50;99.90
11474;DHT22;5793;52.238;13.438;2023-11-18T13:20:39;6.40;99.90
11474;DHT22;5793;52.238;13.438;2023-11-18T13:23:08;6.60;99.90
11474;DHT22;5793;52.238;13.438;2023-11-18T13:25:37;6.80;99.90
11474;DHT22;5793;52.238;13.438;2023-11-18T13:28:08;6.70;99.90
11474;DHT22;5793;52.238;13.438;2023-11-18T13:30:37;6.60;99.90
11474;DHT22;5793;52.238;13.438;2023-11-18T13:33:08;6.50;99.90
11474;DHT22;5793;52.238;13.438;2023-11-18T13:35:36;6.40;99.90
11474;DHT22;5793;52.238;13.438;2023-11-18T13:38:04;6.40;99.90
11474;DHT22;5793;52.238;13.438;2023-11-18T13:40:42;6.30;99.90
11474;DHT22;5793;52.238;13.438;2023-11-18T13:43:10;6.20;99.90
11474;DHT22;5793;52.238;13.438;2023-11-18T13:45:38;6.30;99.90
11474;DHT22;5793;52.238;13.438;2023-11-18T13:48:07;6.20;99.90
11474;DHT22;5793;52.238;13.438;2023-11-18T13:50:36;6.20;99.90
11474;DHT22;5793;52.238;13.438;2023-11-18T13:53:04;6.10;99.90
11474;DHT22;5793;52.238;13.438;2023-11-18T13:55:34;6.20;99.90
11474;DHT22;5793;52.238;13.438;2023-11-18T13:58:05;6.10;99.90
11474;DHT22;5793;52.238;13.438;2023-11-18T14:00:33;6.10;99.90
11474;DHT22;5793;52.238;13.438;2023-11-18T14:03:03;6.10;99.90
11474;DHT22;5793;52.238;13.438;2023-11-18T14:05:35;6.00;99.90
11474;DHT22;5793;52.238;13.438;2023-11-18T14:08:04;6.20;99.90
11474;DHT22;5793;52.238;13.438;2023-11-18T14:10:37;6.00;99.90
11474;DHT22;5793;52.238;13.438;2023-11-18T14:13:07;6.00;99.90
11474;DHT22;5793;52.238;13.438;2023-11-18T14:15:38;5.90;99.90
11474;DHT22;5793;52.238;13.438;2023-11-18T14:18:09;5.90;99.90
11474;DHT22;5793;52.238;13.438;2023-11-18T14:20:39;5.90;99.90
11474;DHT22;5793;52.238;13.438;2023-11-18T14:23:07;5.90;99.90
11474;DHT22;5793;52.238;13.438;2023-11-18T14:25:35;5.80;99.90
11474;DHT22;5793;52.238;13.438;2023-11-18T14:28:05;5.80;99.90
11474;DHT22;5793;52.238;13.438;2023-11-18T14:30:35;5.80;99.90
11474;DHT22;5793;52.238;13.438;2023-11-18T14:33:03;5.80;99.90
11474;DHT22;5793;52.238;13.438;2023-11-18T14:35:31;5.80;99.90
11474;DHT22;5793;52.238;13.438;2023-11-18T14:38:00;5.80;99.90
11474;DHT22;5793;52.238;13.438;2023-11-18T14:40:29;5.90;99.90
11474;DHT22;5793;52.238;13.438;2023-11-18T14:42:56;5.80;99.90
11474;DHT22;5793;52.238;13.438;2023-11-18T14:45:25;5.70;99.90
11474;DHT22;5793;52.238;13.438;2023-11-18T14:47:53;5.70;99.90
11474;DHT22;5793;52.238;13.438;2023-11-18T14:50:23;5.70;99.90
11474;DHT22;5793;52.238;13.438;2023-11-18T14:52:53;5.70;99.90
11474;DHT22;5793;52.238;13.438;2023-11-18T14:55:28;5.70;99.90
11474;DHT22;5793;52.238;13.438;2023-11-18T14:57:56;5.70;99.90
11474;DHT22;5793;52.238;13.438;2023-11-18T15:00:24;5.70;99.90
11474;DHT22;5793;52.238;13.438;2023-11-18T15:02:55;5.50;99.90
11474;DHT22;5793;52.238;13.438;2023-11-18T15:05:26;5.50;99.90
11474;DHT22;5793;52.238;13.438;2023-11-18T15:07:55;5.50;99.90
11474;DHT22;5793;52.238;13.438;2023-11-18T15:10:26;5.50;99.90
11474;DHT22;5793;52.238;13.438;2023-11-18T15:12:57;5.50;99.90
11474;DHT22;5793;52.238;13.438;2023-11-18T15:15:30;5.50;99.90
11474;DHT22;5793;52.238;13.438;2023-11-18T15:18:01;5.40;99.90
11474;DHT22;5793;52.238;13.438;2023-11-18T15:20:32;5.40;99.90
11474;DHT22;5793;52.238;13.438;2023-11-18T15:23:01;5.40;99.90
11474;DHT22;5793;52.238;13.438;2023-11-18T15:25:31;5.30;99.90
11474;DHT22;5793;52.238;13.438;2023-11-18T15:28:02;5.30;99.90
11474;DHT22;5793;52.238;13.438;2023-11-18T15:30:32;5.30;99.90
11474;DHT22;5793;52.238;13.438;2023-11-18T15:33:00;5.20;99.90
11474;DHT22;5793;52.238;13.438;2023-11-18T15:35:28;5.00;99.90
11474;DHT22;5793;52.238;13.438;2023-11-18T15:37:57;4.90;99.90
11474;DHT22;5793;52.238;13.438;2023-11-18T15:40:25;5.00;99.90
11474;DHT22;5793;52.238;13.438;2023-11-18T15:42:53;4.90;99.90
11474;DHT22;5793;52.238;13.438;2023-11-18T15:45:25;4.90;99.90
11474;DHT22;5793;52.238;13.438;2023-11-18T15:47:53;4.90;99.90
11474;DHT22;5793;52.238;13.438;2023-11-18T15:50:22;4.80;99.90
11474;DHT22;5793;52.238;13.438;2023-11-18T15:52:50;4.70;99.90
11474;DHT22;5793;52.238;13.438;2023-11-18T15:55:20;4.70;99.90
11474;DHT22;5793;52.238;13.438;2023-11-18T15:57:49;4.60;99.90
11474;DHT22;5793;52.238;13.438;2023-11-18T16:00:20;4.60;99.90
11474;DHT22;5793;52.238;13.438;2023-11-18T16:02:51;4.50;99.90
11474;DHT22;5793;52.238;13.438;2023-11-18T16:05:22;4.40;99.90
11474;DHT22;5793;52.238;13.438;2023-11-18T16:07:51;4.20;99.90
11474;DHT22;5793;52.238;13.438;2023-11-18T16:10:22;4.30;99.90
11474;DHT22;5793;52.238;13.438;2023-11-18T16:12:51;4.20;99.90